createdAt,value
2018-02-23T00:00:33.406Z,1011.70
2018-02-23T00:01:33.349Z,1011.70
2018-02-23T00:02:33.303Z,1011.72
2018-02-23T00:03:33.246Z,1011.76
2018-02-23T00:04:33.218Z,1011.72
2018-02-23T00:05:33.142Z,1011.69
2018-02-23T00:06:33.136Z,1011.64
2018-02-23T00:07:33.044Z,1011.58
2018-02-23T00:08:32.988Z,1011.61
2018-02-23T00:09:32.964Z,1011.57
2018-02-23T00:10:32.883Z,1011.57
2018-02-23T00:11:32.857Z,1011.55
2018-02-23T00:12:32.781Z,1011.52
2018-02-23T00:13:32.730Z,1011.55
2018-02-23T00:14:32.708Z,1011.53
2018-02-23T00:15:32.626Z,1011.51
2018-02-23T00:16:32.609Z,1011.53
2018-02-23T00:17:32.524Z,1011.50
2018-02-23T00:18:32.472Z,1011.52
2018-02-23T00:19:32.462Z,1011.53
2018-02-23T00:20:32.368Z,1011.53
2018-02-23T00:21:32.316Z,1011.49
2018-02-23T00:22:32.262Z,1011.55
2018-02-23T00:23:32.215Z,1011.57
2018-02-23T00:24:32.187Z,1011.53
2018-02-23T00:25:32.112Z,1011.55
2018-02-23T00:26:32.062Z,1011.51
2018-02-23T00:27:32.009Z,1011.53
2018-02-23T00:28:31.957Z,1011.53
2018-02-23T00:29:31.924Z,1011.49
2018-02-23T00:30:31.855Z,1011.50
2018-02-23T00:31:31.802Z,1011.59
2018-02-23T00:32:31.751Z,1011.56
2018-02-23T00:33:31.697Z,1011.54
2018-02-23T00:34:31.665Z,1011.51
2018-02-23T00:35:31.592Z,1011.52
2018-02-23T00:36:31.541Z,1011.54
2018-02-23T00:37:31.494Z,1011.56
2018-02-23T00:38:31.441Z,1011.53
2018-02-23T00:39:31.411Z,1011.51
2018-02-23T00:40:31.333Z,1011.50
2018-02-23T00:41:31.284Z,1011.52
2018-02-23T00:42:31.233Z,1011.50
2018-02-23T00:43:31.181Z,1011.51
2018-02-23T00:44:31.157Z,1011.53
2018-02-23T00:45:31.080Z,1011.50
2018-02-23T00:46:31.024Z,1011.50
2018-02-23T00:47:30.987Z,1011.52
2018-02-23T00:48:30.922Z,1011.59
2018-02-23T00:49:30.893Z,1011.53
2018-02-23T00:50:30.821Z,1011.59
2018-02-23T00:51:30.766Z,1011.58
2018-02-23T00:52:30.720Z,1011.59
2018-02-23T00:53:30.664Z,1011.60
2018-02-23T00:54:30.639Z,1011.57
2018-02-23T00:55:30.557Z,1011.63
2018-02-23T00:56:30.513Z,1011.56
2018-02-23T00:57:30.462Z,1011.60
2018-02-23T00:58:30.410Z,1011.60
2018-02-23T00:59:30.381Z,1011.56
2018-02-23T01:00:30.304Z,1011.59
2018-02-23T01:01:30.253Z,1011.59
2018-02-23T01:02:30.197Z,1011.59
2018-02-23T01:03:30.150Z,1011.52
2018-02-23T01:04:30.124Z,1011.52
2018-02-23T01:05:30.103Z,1011.54
2018-02-23T01:06:30.002Z,1011.53
2018-02-23T01:07:29.956Z,1011.55
2018-02-23T01:08:29.890Z,1011.58
2018-02-23T01:09:29.858Z,1011.58
2018-02-23T01:10:29.788Z,1011.61
2018-02-23T01:11:29.733Z,1011.54
2018-02-23T01:12:29.681Z,1011.57
2018-02-23T01:13:29.630Z,1011.58
2018-02-23T01:14:29.605Z,1011.62
2018-02-23T01:15:29.525Z,1011.62
2018-02-23T01:16:29.487Z,1011.61
2018-02-23T01:17:29.424Z,1011.60
2018-02-23T01:18:29.375Z,1011.57
2018-02-23T01:19:29.345Z,1011.59
2018-02-23T01:20:29.279Z,1011.55
2018-02-23T01:21:29.274Z,1011.61
2018-02-23T01:22:29.166Z,1011.58
2018-02-23T01:23:29.112Z,1011.55
2018-02-23T01:24:29.086Z,1011.58
2018-02-23T01:25:29.012Z,1011.54
2018-02-23T01:26:28.960Z,1011.53
2018-02-23T01:27:28.906Z,1011.56
2018-02-23T01:28:28.855Z,1011.57
2018-02-23T01:29:28.829Z,1011.55
2018-02-23T01:30:28.750Z,1011.49
2018-02-23T01:31:28.698Z,1011.50
2018-02-23T01:32:28.647Z,1011.49
2018-02-23T01:33:28.595Z,1011.45
2018-02-23T01:34:28.568Z,1011.44
2018-02-23T01:35:28.494Z,1011.46
2018-02-23T01:36:28.444Z,1011.42
2018-02-23T01:37:28.389Z,1011.39
2018-02-23T01:38:28.339Z,1011.41
2018-02-23T01:39:28.308Z,1011.42
2018-02-23T01:40:28.234Z,1011.43
2018-02-23T01:41:28.184Z,1011.41
2018-02-23T01:42:28.130Z,1011.44
2018-02-23T01:43:28.079Z,1011.44
2018-02-23T01:44:28.054Z,1011.41
2018-02-23T01:45:27.976Z,1011.43
2018-02-23T01:46:27.924Z,1011.43
2018-02-23T01:47:27.871Z,1011.41
2018-02-23T01:48:35.968Z,1011.39
2018-02-23T01:49:27.792Z,1011.37
2018-02-23T01:50:27.714Z,1011.36
2018-02-23T01:51:27.668Z,1011.37
2018-02-23T01:52:27.623Z,1011.33
2018-02-23T01:53:27.565Z,1011.33
2018-02-23T01:54:27.533Z,1011.28
2018-02-23T01:55:27.504Z,1011.25
2018-02-23T01:56:27.402Z,1011.24
2018-02-23T01:57:27.352Z,1011.26
2018-02-23T01:58:27.300Z,1011.24
2018-02-23T01:59:27.267Z,1011.32
2018-02-23T02:00:27.193Z,1011.29
2018-02-23T02:01:27.137Z,1011.28
2018-02-23T02:02:27.098Z,1011.23
2018-02-23T02:03:27.036Z,1011.23
2018-02-23T02:04:27.014Z,1011.20
2018-02-23T02:05:26.935Z,1011.21
2018-02-23T02:06:26.878Z,1011.23
2018-02-23T02:07:26.834Z,1011.20
2018-02-23T02:08:26.801Z,1011.21
2018-02-23T02:09:26.747Z,1011.20
2018-02-23T02:10:26.673Z,1011.21
2018-02-23T02:11:26.620Z,1011.21
2018-02-23T02:12:26.577Z,1011.15
2018-02-23T02:13:26.518Z,1011.18
2018-02-23T02:14:26.533Z,1011.14
2018-02-23T02:15:26.412Z,1011.15
2018-02-23T02:16:26.362Z,1011.11
2018-02-23T02:17:26.310Z,1011.17
2018-02-23T02:18:26.254Z,1011.19
2018-02-23T02:19:26.225Z,1011.18
2018-02-23T02:20:26.152Z,1011.14
2018-02-23T02:21:26.102Z,1011.12
2018-02-23T02:22:26.048Z,1011.18
2018-02-23T02:23:25.997Z,1011.16
2018-02-23T02:24:25.975Z,1011.17
2018-02-23T02:25:25.889Z,1011.13
2018-02-23T02:26:25.844Z,1011.12
2018-02-23T02:27:25.782Z,1011.08
2018-02-23T02:28:25.732Z,1011.10
2018-02-23T02:29:25.706Z,1011.11
2018-02-23T02:30:25.645Z,1011.12
2018-02-23T02:31:25.578Z,1011.15
2018-02-23T02:32:25.527Z,1011.12
2018-02-23T02:33:25.505Z,1011.16
2018-02-23T02:34:25.474Z,1011.12
2018-02-23T02:35:25.371Z,1011.07
2018-02-23T02:36:25.314Z,1011.05
2018-02-23T02:37:25.264Z,1011.08
2018-02-23T02:38:25.213Z,1011.01
2018-02-23T02:39:25.198Z,1011.04
2018-02-23T02:40:25.110Z,1011.05
2018-02-23T02:41:25.054Z,1010.97
2018-02-23T02:42:25.002Z,1011.06
2018-02-23T02:43:24.950Z,1011.13
2018-02-23T02:44:24.898Z,1011.13
2018-02-23T02:45:24.872Z,1011.07
2018-02-23T02:46:24.793Z,1011.08
2018-02-23T02:47:24.737Z,1011.09
2018-02-23T02:48:24.734Z,1011.06
2018-02-23T02:49:24.637Z,1011.05
2018-02-23T02:50:24.614Z,1011.06
2018-02-23T02:51:24.533Z,1011.09
2018-02-23T02:52:24.478Z,1011.08
2018-02-23T02:53:24.429Z,1011.10
2018-02-23T02:54:24.375Z,1011.08
2018-02-23T02:55:24.364Z,1011.06
2018-02-23T02:56:24.270Z,1011.03
2018-02-23T02:57:24.217Z,1011.02
2018-02-23T02:58:24.165Z,1011.02
2018-02-23T02:59:24.106Z,1010.98
2018-02-23T03:00:24.087Z,1010.99
2018-02-23T03:01:24.008Z,1010.98
2018-02-23T03:02:23.954Z,1011.01
2018-02-23T03:03:23.903Z,1011.00
2018-02-23T03:04:23.851Z,1011.03
2018-02-23T03:05:23.814Z,1011.03
2018-02-23T03:06:23.741Z,1011.00
2018-02-23T03:07:23.693Z,1011.02
2018-02-23T03:08:23.639Z,1011.01
2018-02-23T03:09:23.584Z,1011.03
2018-02-23T03:10:23.561Z,1011.01
2018-02-23T03:11:23.481Z,1011.01
2018-02-23T03:12:23.428Z,1011.00
2018-02-23T03:13:23.380Z,1010.98
2018-02-23T03:14:23.327Z,1010.96
2018-02-23T03:15:23.297Z,1011.01
2018-02-23T03:16:23.219Z,1011.03
2018-02-23T03:17:23.165Z,1011.07
2018-02-23T03:18:23.116Z,1011.04
2018-02-23T03:19:23.062Z,1011.06
2018-02-23T03:20:23.033Z,1011.04
2018-02-23T03:21:22.960Z,1011.04
2018-02-23T03:22:22.906Z,1011.05
2018-02-23T03:23:22.854Z,1011.08
2018-02-23T03:24:22.802Z,1011.07
2018-02-23T03:25:22.774Z,1011.01
2018-02-23T03:26:22.693Z,1010.98
2018-02-23T03:27:22.644Z,1011.03
2018-02-23T03:28:22.592Z,1011.02
2018-02-23T03:29:22.537Z,1011.01
2018-02-23T03:30:22.524Z,1011.03
2018-02-23T03:31:22.433Z,1011.00
2018-02-23T03:32:22.382Z,1011.05
2018-02-23T03:33:22.330Z,1011.04
2018-02-23T03:34:22.279Z,1011.00
2018-02-23T03:35:22.255Z,1011.02
2018-02-23T03:36:22.166Z,1011.08
2018-02-23T03:37:22.117Z,1011.02
2018-02-23T03:38:22.065Z,1011.04
2018-02-23T03:39:22.008Z,1011.09
2018-02-23T03:40:21.981Z,1011.02
2018-02-23T03:41:21.909Z,1011.01
2018-02-23T03:42:21.853Z,1011.01
2018-02-23T03:43:21.800Z,1011.05
2018-02-23T03:44:21.748Z,1010.99
2018-02-23T03:45:21.721Z,1011.01
2018-02-23T03:46:21.657Z,1011.01
2018-02-23T03:47:21.592Z,1011.03
2018-02-23T03:48:21.535Z,1010.97
2018-02-23T03:49:21.485Z,1011.00
2018-02-23T03:50:21.455Z,1011.04
2018-02-23T03:51:21.376Z,1010.99
2018-02-23T03:52:21.327Z,1011.02
2018-02-23T03:53:21.278Z,1011.00
2018-02-23T03:54:21.251Z,1011.06
2018-02-23T03:55:21.211Z,1011.05
2018-02-23T03:56:21.119Z,1011.00
2018-02-23T03:57:21.064Z,1010.99
2018-02-23T03:58:21.014Z,1011.03
2018-02-23T03:59:20.969Z,1011.03
2018-02-23T04:00:20.925Z,1011.07
2018-02-23T04:01:20.853Z,1011.06
2018-02-23T04:02:20.798Z,1011.11
2018-02-23T04:03:20.750Z,1011.07
2018-02-23T04:04:20.692Z,1011.03
2018-02-23T04:05:20.695Z,1011.08
2018-02-23T04:06:20.591Z,1011.11
2018-02-23T04:07:20.535Z,1011.16
2018-02-23T04:08:20.483Z,1011.14
2018-02-23T04:09:20.431Z,1011.11
2018-02-23T04:10:20.425Z,1011.11
2018-02-23T04:11:20.329Z,1011.16
2018-02-23T04:12:20.273Z,1011.08
2018-02-23T04:13:20.232Z,1011.07
2018-02-23T04:14:20.173Z,1011.13
2018-02-23T04:15:20.142Z,1011.15
2018-02-23T04:16:20.062Z,1011.15
2018-02-23T04:17:20.011Z,1011.22
2018-02-23T04:18:19.960Z,1011.20
2018-02-23T04:19:19.905Z,1011.18
2018-02-23T04:20:19.881Z,1011.18
2018-02-23T04:21:19.799Z,1011.14
2018-02-23T04:22:19.751Z,1011.19
2018-02-23T04:23:19.716Z,1011.12
2018-02-23T04:24:19.641Z,1011.16
2018-02-23T04:25:19.614Z,1011.17
2018-02-23T04:26:19.535Z,1011.10
2018-02-23T04:27:19.479Z,1011.13
2018-02-23T04:28:19.431Z,1011.17
2018-02-23T04:29:19.377Z,1011.15
2018-02-23T04:30:19.349Z,1011.13
2018-02-23T04:31:19.274Z,1011.15
2018-02-23T04:32:19.247Z,1011.19
2018-02-23T04:33:19.166Z,1011.18
2018-02-23T04:34:19.114Z,1011.19
2018-02-23T04:35:19.082Z,1011.19
2018-02-23T04:36:19.005Z,1011.19
2018-02-23T04:37:18.957Z,1011.22
2018-02-23T04:38:18.901Z,1011.19
2018-02-23T04:39:18.852Z,1011.21
2018-02-23T04:40:18.820Z,1011.24
2018-02-23T04:41:18.747Z,1011.21
2018-02-23T04:42:18.693Z,1011.21
2018-02-23T04:43:18.640Z,1011.21
2018-02-23T04:44:18.586Z,1011.22
2018-02-23T04:45:18.563Z,1011.23
2018-02-23T04:46:18.489Z,1011.25
2018-02-23T04:47:18.428Z,1011.23
2018-02-23T04:48:18.377Z,1011.24
2018-02-23T04:49:18.327Z,1011.23
2018-02-23T04:50:18.328Z,1011.29
2018-02-23T04:51:18.220Z,1011.27
2018-02-23T04:52:18.167Z,1011.25
2018-02-23T04:53:18.114Z,1011.31
2018-02-23T04:54:18.063Z,1011.23
2018-02-23T04:55:18.042Z,1011.27
2018-02-23T04:56:17.954Z,1011.31
2018-02-23T04:57:17.903Z,1011.27
2018-02-23T04:58:17.865Z,1011.30
2018-02-23T04:59:17.802Z,1011.35
2018-02-23T05:00:17.771Z,1011.32
2018-02-23T05:01:17.692Z,1011.34
2018-02-23T05:02:17.644Z,1011.38
2018-02-23T05:03:17.588Z,1011.37
2018-02-23T05:04:17.544Z,1011.38
2018-02-23T05:05:17.505Z,1011.37
2018-02-23T05:06:17.430Z,1011.39
2018-02-23T05:07:17.380Z,1011.38
2018-02-23T05:08:17.326Z,1011.42
2018-02-23T05:09:17.272Z,1011.44
2018-02-23T05:10:17.242Z,1011.42
2018-02-23T05:11:17.165Z,1011.40
2018-02-23T05:12:17.115Z,1011.43
2018-02-23T05:13:17.066Z,1011.40
2018-02-23T05:14:17.011Z,1011.40
2018-02-23T05:15:16.981Z,1011.47
2018-02-23T05:16:16.905Z,1011.39
2018-02-23T05:17:16.853Z,1011.43
2018-02-23T05:18:16.801Z,1011.43
2018-02-23T05:19:16.751Z,1011.41
2018-02-23T05:20:16.933Z,1011.43
2018-02-23T05:21:16.640Z,1011.52
2018-02-23T05:22:16.587Z,1011.49
2018-02-23T05:23:16.535Z,1011.44
2018-02-23T05:24:16.481Z,1011.50
2018-02-23T05:25:16.457Z,1011.45
2018-02-23T05:26:16.378Z,1011.49
2018-02-23T05:27:16.326Z,1011.47
2018-02-23T05:28:16.271Z,1011.48
2018-02-23T05:29:16.216Z,1011.47
2018-02-23T05:30:16.214Z,1011.51
2018-02-23T05:31:16.112Z,1011.47
2018-02-23T05:32:16.061Z,1011.52
2018-02-23T05:33:16.014Z,1011.53
2018-02-23T05:34:15.957Z,1011.52
2018-02-23T05:35:15.933Z,1011.51
2018-02-23T05:36:15.876Z,1011.53
2018-02-23T05:37:15.796Z,1011.53
2018-02-23T05:38:15.745Z,1011.53
2018-02-23T05:39:15.690Z,1011.56
2018-02-23T05:40:15.640Z,1011.54
2018-02-23T05:41:15.608Z,1011.53
2018-02-23T05:42:15.534Z,1011.58
2018-02-23T05:43:15.479Z,1011.57
2018-02-23T05:44:15.426Z,1011.54
2018-02-23T05:45:15.375Z,1011.54
2018-02-23T05:46:15.347Z,1011.53
2018-02-23T05:47:15.279Z,1011.55
2018-02-23T05:48:15.214Z,1011.55
2018-02-23T05:49:15.166Z,1011.55
2018-02-23T05:50:15.117Z,1011.56
2018-02-23T05:51:15.079Z,1011.52
2018-02-23T05:52:15.001Z,1011.51
2018-02-23T05:53:14.948Z,1011.54
2018-02-23T05:54:14.897Z,1011.56
2018-02-23T05:55:14.842Z,1011.57
2018-02-23T05:56:14.816Z,1011.56
2018-02-23T05:57:14.738Z,1011.55
2018-02-23T05:58:14.686Z,1011.53
2018-02-23T05:59:14.639Z,1011.51
2018-02-23T06:00:14.579Z,1011.51
2018-02-23T06:01:14.547Z,1011.57
2018-02-23T06:02:14.472Z,1011.55
2018-02-23T06:03:14.420Z,1011.56
2018-02-23T06:04:14.520Z,1011.58
2018-02-23T06:05:14.313Z,1011.60
2018-02-23T06:06:14.282Z,1011.59
2018-02-23T06:07:14.207Z,1011.56
2018-02-23T06:08:14.155Z,1011.59
2018-02-23T06:09:14.103Z,1011.58
2018-02-23T06:10:14.047Z,1011.61
2018-02-23T06:11:14.019Z,1011.60
2018-02-23T06:12:13.940Z,1011.65
2018-02-23T06:13:13.895Z,1011.62
2018-02-23T06:14:13.835Z,1011.62
2018-02-23T06:15:13.787Z,1011.62
2018-02-23T06:16:13.756Z,1011.63
2018-02-23T06:17:13.677Z,1011.61
2018-02-23T06:18:13.628Z,1011.64
2018-02-23T06:19:13.570Z,1011.67
2018-02-23T06:20:13.514Z,1011.63
2018-02-23T06:21:13.488Z,1011.64
2018-02-23T06:22:13.410Z,1011.66
2018-02-23T06:23:13.380Z,1011.69
2018-02-23T06:24:13.303Z,1011.67
2018-02-23T06:25:13.285Z,1011.68
2018-02-23T06:26:13.254Z,1011.71
2018-02-23T06:27:13.146Z,1011.69
2018-02-23T06:28:13.096Z,1011.72
2018-02-23T06:29:13.044Z,1011.76
2018-02-23T06:30:12.990Z,1011.74
2018-02-23T06:31:12.957Z,1011.76
2018-02-23T06:32:12.914Z,1011.78
2018-02-23T06:33:12.828Z,1011.81
2018-02-23T06:34:12.778Z,1011.83
2018-02-23T06:35:12.720Z,1011.85
2018-02-23T06:36:12.695Z,1011.92
2018-02-23T06:37:12.611Z,1011.91
2018-02-23T06:38:12.566Z,1011.91
2018-02-23T06:39:12.514Z,1011.87
2018-02-23T06:40:12.482Z,1011.93
2018-02-23T06:41:12.429Z,1011.94
2018-02-23T06:42:12.353Z,1011.94
2018-02-23T06:43:12.297Z,1011.91
2018-02-23T06:44:12.248Z,1011.89
2018-02-23T06:45:12.192Z,1011.92
2018-02-23T06:46:12.162Z,1011.96
2018-02-23T06:47:12.088Z,1012.01
2018-02-23T06:48:12.049Z,1011.98
2018-02-23T06:49:11.991Z,1011.96
2018-02-23T06:50:11.926Z,1012.03
2018-02-23T06:51:11.897Z,1012.01
2018-02-23T06:52:11.823Z,1011.98
2018-02-23T06:53:11.768Z,1012.01
2018-02-23T06:54:11.717Z,1012.01
2018-02-23T06:55:11.663Z,1011.97
2018-02-23T06:56:11.636Z,1011.95
2018-02-23T06:57:11.556Z,1011.93
2018-02-23T06:58:11.554Z,1012.02
2018-02-23T06:59:11.454Z,1011.97
2018-02-23T07:00:11.397Z,1011.97
2018-02-23T07:01:11.376Z,1011.99
2018-02-23T07:02:11.294Z,1011.98
2018-02-23T07:03:11.239Z,1012.00
2018-02-23T07:04:11.188Z,1012.02
2018-02-23T07:05:11.138Z,1012.05
2018-02-23T07:06:11.105Z,1012.06
2018-02-23T07:07:11.035Z,1012.07
2018-02-23T07:08:10.979Z,1012.07
2018-02-23T07:09:10.927Z,1012.09
2018-02-23T07:10:10.873Z,1012.07
2018-02-23T07:11:10.873Z,1012.10
2018-02-23T07:12:10.766Z,1012.08
2018-02-23T07:13:10.715Z,1012.08
2018-02-23T07:14:10.671Z,1012.14
2018-02-23T07:15:10.611Z,1012.15
2018-02-23T07:16:10.584Z,1012.10
2018-02-23T07:17:10.505Z,1012.10
2018-02-23T07:18:10.455Z,1012.16
2018-02-23T07:19:10.403Z,1012.13
2018-02-23T07:20:10.347Z,1012.14
2018-02-23T07:21:10.323Z,1012.12
2018-02-23T07:22:10.248Z,1012.09
2018-02-23T07:23:10.193Z,1012.13
2018-02-23T07:24:10.140Z,1012.10
2018-02-23T07:25:10.090Z,1012.07
2018-02-23T07:26:10.063Z,1012.08
2018-02-23T07:27:09.985Z,1012.08
2018-02-23T07:28:09.931Z,1012.09
2018-02-23T07:29:09.883Z,1012.11
2018-02-23T07:30:09.828Z,1012.09
2018-02-23T07:31:09.808Z,1012.13
2018-02-23T07:32:09.723Z,1012.13
2018-02-23T07:33:09.668Z,1012.14
2018-02-23T07:34:09.622Z,1012.15
2018-02-23T07:35:09.569Z,1012.14
2018-02-23T07:36:09.519Z,1012.14
2018-02-23T07:37:09.484Z,1012.17
2018-02-23T07:38:09.410Z,1012.11
2018-02-23T07:39:09.354Z,1012.13
2018-02-23T07:40:09.305Z,1012.13
2018-02-23T07:41:09.273Z,1012.11
2018-02-23T07:42:09.228Z,1012.11
2018-02-23T07:43:09.148Z,1012.15
2018-02-23T07:44:09.100Z,1012.17
2018-02-23T07:45:09.043Z,1012.19
2018-02-23T07:46:08.991Z,1012.14
2018-02-23T07:47:08.965Z,1012.14
2018-02-23T07:48:08.889Z,1012.18
2018-02-23T07:49:08.835Z,1012.13
2018-02-23T07:50:08.784Z,1012.12
2018-02-23T07:51:08.733Z,1012.18
2018-02-23T07:52:08.705Z,1012.14
2018-02-23T07:53:08.639Z,1012.15
2018-02-23T07:54:08.585Z,1012.15
2018-02-23T07:55:08.526Z,1012.15
2018-02-23T07:56:08.473Z,1012.15
2018-02-23T07:57:08.445Z,1012.13
2018-02-23T07:58:08.371Z,1012.16
2018-02-23T07:59:08.319Z,1012.14
2018-02-23T08:00:08.526Z,1012.15
2018-02-23T08:01:08.214Z,1012.19
2018-02-23T08:02:08.181Z,1012.12
2018-02-23T08:03:08.112Z,1012.18
2018-02-23T08:04:08.055Z,1012.18
2018-02-23T08:05:08.006Z,1012.23
2018-02-23T08:06:07.955Z,1012.18
2018-02-23T08:07:07.923Z,1012.24
2018-02-23T08:08:07.848Z,1012.23
2018-02-23T08:09:07.795Z,1012.24
2018-02-23T08:10:07.747Z,1012.26
2018-02-23T08:11:07.694Z,1012.19
2018-02-23T08:12:07.666Z,1012.20
2018-02-23T08:13:07.591Z,1012.19
2018-02-23T08:14:07.538Z,1012.21
2018-02-23T08:15:07.484Z,1012.14
2018-02-23T08:16:07.464Z,1012.21
2018-02-23T08:17:07.407Z,1012.19
2018-02-23T08:18:07.333Z,1012.17
2018-02-23T08:19:07.280Z,1012.17
2018-02-23T08:20:07.230Z,1012.20
2018-02-23T08:21:07.176Z,1012.23
2018-02-23T08:22:07.156Z,1012.20
2018-02-23T08:23:07.073Z,1012.19
2018-02-23T08:24:07.026Z,1012.19
2018-02-23T08:25:06.971Z,1012.22
2018-02-23T08:26:06.921Z,1012.26
2018-02-23T08:27:06.892Z,1012.24
2018-02-23T08:28:06.817Z,1012.23
2018-02-23T08:29:06.767Z,1012.21
2018-02-23T08:30:06.713Z,1012.21
2018-02-23T08:31:06.667Z,1012.21
2018-02-23T08:32:06.636Z,1012.17
2018-02-23T08:33:06.560Z,1012.14
2018-02-23T08:34:06.514Z,1012.18
2018-02-23T08:35:06.457Z,1012.18
2018-02-23T08:36:06.408Z,1012.21
2018-02-23T08:37:06.378Z,1012.16
2018-02-23T08:38:06.305Z,1012.18
2018-02-23T08:39:06.253Z,1012.30
2018-02-23T08:40:06.203Z,1012.25
2018-02-23T08:41:06.152Z,1012.17
2018-02-23T08:42:06.128Z,1012.19
2018-02-23T08:43:06.050Z,1012.18
2018-02-23T08:44:06.050Z,1012.19
2018-02-23T08:45:05.948Z,1012.24
2018-02-23T08:46:05.929Z,1012.20
2018-02-23T08:47:05.921Z,1012.32
2018-02-23T08:48:05.841Z,1012.08
2018-02-23T08:49:05.740Z,1012.21
2018-02-23T08:50:05.693Z,1012.19
2018-02-23T08:51:05.636Z,1012.34
2018-02-23T08:52:05.612Z,1012.28
2018-02-23T08:53:05.535Z,1012.24
2018-02-23T08:54:05.485Z,1012.23
2018-02-23T08:55:05.431Z,1012.33
2018-02-23T08:56:05.380Z,1012.31
2018-02-23T08:57:05.355Z,1012.17
2018-02-23T08:58:05.283Z,1012.34
2018-02-23T08:59:05.230Z,1012.34
2018-02-23T09:00:05.173Z,1012.33
2018-02-23T09:01:05.125Z,1012.35
2018-02-23T09:02:05.098Z,1012.29
2018-02-23T09:03:05.020Z,1012.36
2018-02-23T09:04:04.970Z,1012.40
2018-02-23T09:05:04.918Z,1012.39
2018-02-23T09:06:04.869Z,1012.31
2018-02-23T09:07:04.837Z,1012.26
2018-02-23T09:08:04.762Z,1012.27
2018-02-23T09:09:04.710Z,1012.33
2018-02-23T09:10:04.658Z,1012.35
2018-02-23T09:11:04.622Z,1012.41
2018-02-23T09:12:04.584Z,1012.24
2018-02-23T09:13:04.510Z,1012.28
2018-02-23T09:14:04.458Z,1012.27
2018-02-23T09:15:04.403Z,1012.27
2018-02-23T09:16:04.356Z,1012.26
2018-02-23T09:17:04.324Z,1012.27
2018-02-23T09:18:04.249Z,1012.27
2018-02-23T09:19:04.201Z,1012.23
2018-02-23T09:20:04.148Z,1012.34
2018-02-23T09:21:04.095Z,1012.32
2018-02-23T09:22:04.065Z,1012.28
2018-02-23T09:23:03.992Z,1012.33
2018-02-23T09:24:03.938Z,1012.34
2018-02-23T09:25:03.890Z,1012.30
2018-02-23T09:26:03.838Z,1012.29
2018-02-23T09:27:03.811Z,1012.33
2018-02-23T09:28:03.737Z,1012.38
2018-02-23T09:29:03.689Z,1012.36
2018-02-23T09:30:03.680Z,1012.30
2018-02-23T09:31:03.580Z,1012.36
2018-02-23T09:32:03.556Z,1012.35
2018-02-23T09:33:03.479Z,1012.30
2018-02-23T09:34:03.433Z,1012.32
2018-02-23T09:35:03.374Z,1012.33
2018-02-23T09:36:03.327Z,1012.36
2018-02-23T09:37:03.306Z,1012.34
2018-02-23T09:38:03.224Z,1012.36
2018-02-23T09:39:03.180Z,1012.31
2018-02-23T09:40:03.119Z,1012.37
2018-02-23T09:41:03.075Z,1012.36
2018-02-23T09:42:03.047Z,1012.36
2018-02-23T09:43:02.969Z,1012.39
2018-02-23T09:44:02.917Z,1012.37
2018-02-23T09:45:02.870Z,1012.36
2018-02-23T09:46:02.813Z,1012.36
2018-02-23T09:47:02.782Z,1012.36
2018-02-23T09:48:02.711Z,1012.35
2018-02-23T09:49:02.659Z,1012.32
2018-02-23T09:50:02.609Z,1012.36
2018-02-23T09:51:02.557Z,1012.35
2018-02-23T09:52:02.528Z,1012.33
2018-02-23T09:53:02.454Z,1012.41
2018-02-23T09:54:02.402Z,1012.49
2018-02-23T09:55:02.352Z,1012.44
2018-02-23T09:56:02.297Z,1012.41
2018-02-23T09:57:02.274Z,1012.45
2018-02-23T09:58:02.204Z,1012.41
2018-02-23T09:59:02.149Z,1012.36
2018-02-23T10:00:02.098Z,1012.37
2018-02-23T10:01:02.042Z,1012.44
2018-02-23T10:02:02.012Z,1012.49
2018-02-23T10:03:01.939Z,1012.48
2018-02-23T10:04:01.888Z,1012.50
2018-02-23T10:05:01.836Z,1012.43
2018-02-23T10:06:01.789Z,1012.50
2018-02-23T10:07:01.795Z,1012.41
2018-02-23T10:08:01.681Z,1012.47
2018-02-23T10:09:01.632Z,1012.48
2018-02-23T10:10:01.579Z,1012.54
2018-02-23T10:11:01.636Z,1012.50
2018-02-23T10:12:01.501Z,1012.51
2018-02-23T10:13:01.429Z,1012.51
2018-02-23T10:14:01.461Z,1012.50
2018-02-23T10:15:01.327Z,1012.43
2018-02-23T10:16:01.313Z,1012.46
2018-02-23T10:17:01.249Z,1012.52
2018-02-23T10:18:01.175Z,1012.40
2018-02-23T10:19:01.122Z,1012.43
2018-02-23T10:20:01.313Z,1012.42
2018-02-23T10:21:01.016Z,1012.43
2018-02-23T10:22:00.991Z,1012.38
2018-02-23T10:23:00.915Z,1012.42
2018-02-23T10:24:00.868Z,1012.40
2018-02-23T10:25:00.812Z,1012.41
2018-02-23T10:26:00.770Z,1012.38
2018-02-23T10:27:00.742Z,1012.45
2018-02-23T10:28:00.659Z,1012.42
2018-02-23T10:29:00.610Z,1012.39
2018-02-23T10:30:00.558Z,1012.37
2018-02-23T10:31:00.515Z,1012.34
2018-02-23T10:32:00.461Z,1012.32
2018-02-23T10:33:00.432Z,1012.28
2018-02-23T10:34:00.359Z,1012.32
2018-02-23T10:35:00.308Z,1012.38
2018-02-23T10:36:00.507Z,1012.27
2018-02-23T10:37:00.203Z,1012.27
2018-02-23T10:38:00.198Z,1012.22
2018-02-23T10:39:00.107Z,1012.28
2018-02-23T10:40:00.074Z,1012.29
2018-02-23T10:41:00.024Z,1012.27
2018-02-23T10:41:59.950Z,1012.23
2018-02-23T10:42:59.926Z,1012.26
2018-02-23T10:43:59.851Z,1012.17
2018-02-23T10:44:59.820Z,1012.23
2018-02-23T10:45:59.749Z,1012.21
2018-02-23T10:46:59.695Z,1012.13
2018-02-23T10:47:59.673Z,1012.22
2018-02-23T10:48:59.599Z,1012.24
2018-02-23T10:49:59.547Z,1012.25
2018-02-23T10:50:59.498Z,1012.35
2018-02-23T10:51:59.442Z,1012.21
2018-02-23T10:52:59.415Z,1012.31
2018-02-23T10:53:59.344Z,1012.25
2018-02-23T10:54:59.292Z,1012.22
2018-02-23T10:55:59.259Z,1012.34
2018-02-23T10:56:59.190Z,1012.19
2018-02-23T10:57:59.163Z,1012.17
2018-02-23T10:58:59.090Z,1012.21
2018-02-23T10:59:59.039Z,1012.18
2018-02-23T11:00:58.988Z,1012.17
2018-02-23T11:01:58.939Z,1012.13
2018-02-23T11:02:58.907Z,1012.22
2018-02-23T11:03:58.839Z,1012.17
2018-02-23T11:04:58.786Z,1012.16
2018-02-23T11:05:58.748Z,1012.17
2018-02-23T11:06:58.678Z,1012.15
2018-02-23T11:07:58.656Z,1012.12
2018-02-23T11:08:58.580Z,1012.16
2018-02-23T11:09:58.530Z,1012.10
2018-02-23T11:10:58.474Z,1012.14
2018-02-23T11:11:58.423Z,1012.06
2018-02-23T11:12:58.404Z,1012.09
2018-02-23T11:13:58.322Z,1012.08
2018-02-23T11:14:58.283Z,1012.13
2018-02-23T11:15:58.327Z,1012.05
2018-02-23T11:16:58.168Z,1012.09
2018-02-23T11:17:58.147Z,1012.16
2018-02-23T11:18:58.068Z,1012.15
2018-02-23T11:19:58.018Z,1012.07
2018-02-23T11:20:57.981Z,1012.09
2018-02-23T11:21:57.917Z,1012.07
2018-02-23T11:22:57.884Z,1012.12
2018-02-23T11:23:57.812Z,1012.20
2018-02-23T11:24:57.762Z,1012.13
2018-02-23T11:25:57.714Z,1012.05
2018-02-23T11:26:57.659Z,1012.05
2018-02-23T11:27:57.627Z,1012.07
2018-02-23T11:28:57.554Z,1012.09
2018-02-23T11:29:57.546Z,1012.07
2018-02-23T11:30:57.452Z,1012.06
2018-02-23T11:31:57.403Z,1012.12
2018-02-23T11:32:57.374Z,1012.14
2018-02-23T11:33:57.407Z,1012.12
2018-02-23T11:34:57.253Z,1012.10
2018-02-23T11:35:57.231Z,1012.08
2018-02-23T11:36:57.167Z,1012.04
2018-02-23T11:37:57.119Z,1012.08
2018-02-23T11:38:57.039Z,1012.11
2018-02-23T11:39:56.990Z,1012.09
2018-02-23T11:40:57.033Z,1012.03
2018-02-23T11:41:56.893Z,1012.09
2018-02-23T11:42:56.879Z,1012.06
2018-02-23T11:43:56.785Z,1012.03
2018-02-23T11:44:56.843Z,1012.13
2018-02-23T11:45:56.682Z,1012.06
2018-02-23T11:46:56.700Z,1012.00
2018-02-23T11:47:56.605Z,1011.99
2018-02-23T11:48:56.531Z,1012.03
2018-02-23T11:49:56.478Z,1012.04
2018-02-23T11:50:56.449Z,1011.98
2018-02-23T11:51:56.379Z,1011.96
2018-02-23T11:52:56.351Z,1011.93
2018-02-23T11:53:56.276Z,1011.97
2018-02-23T11:54:56.224Z,1012.03
2018-02-23T11:55:56.174Z,1011.94
2018-02-23T11:56:56.128Z,1011.95
2018-02-23T11:57:56.106Z,1011.95
2018-02-23T11:58:56.019Z,1011.96
2018-02-23T11:59:55.969Z,1011.87
2018-02-23T12:00:55.916Z,1011.90
2018-02-23T12:01:55.870Z,1011.90
2018-02-23T12:02:55.839Z,1011.84
2018-02-23T12:03:55.765Z,1011.88
2018-02-23T12:04:55.779Z,1011.89